createdAt,value
2018-03-14T00:01:22.529Z,100314.72
2018-03-14T00:03:50.094Z,100322.78
2018-03-14T00:06:17.648Z,100324.11
2018-03-14T00:08:45.189Z,100325.97
2018-03-14T00:11:12.762Z,100321.98
2018-03-14T00:13:40.307Z,100333.11
2018-03-14T00:16:08.010Z,100337.05
2018-03-14T00:18:35.558Z,100336.83
2018-03-14T00:21:03.119Z,100339.61
2018-03-14T00:23:30.700Z,100349.84
2018-03-14T00:25:58.303Z,100348.66
2018-03-14T00:28:25.932Z,100356.20
2018-03-14T00:30:53.505Z,100356.89
2018-03-14T00:33:21.057Z,100351.63
2018-03-14T00:35:48.634Z,100355.28
2018-03-14T00:38:16.192Z,100359.23
2018-03-14T00:40:43.754Z,100362.33
2018-03-14T00:43:11.309Z,100361.65
2018-03-14T00:45:38.909Z,100368.39
2018-03-14T00:48:06.551Z,100368.98
2018-03-14T00:50:34.108Z,100372.13
2018-03-14T00:53:01.777Z,100364.97
2018-03-14T00:55:29.361Z,100371.69
2018-03-14T00:57:56.963Z,100368.28
2018-03-14T01:00:24.516Z,100366.19
2018-03-14T01:02:52.074Z,100375.63
2018-03-14T01:05:19.690Z,100369.62
2018-03-14T01:07:47.325Z,100374.59
2018-03-14T01:10:14.881Z,100373.58
2018-03-14T01:12:42.467Z,100379.10
2018-03-14T01:15:10.017Z,100376.78
2018-03-14T01:17:37.609Z,100380.66
2018-03-14T01:20:05.171Z,100380.17
2018-03-14T01:22:32.726Z,100387.36
2018-03-14T01:25:00.285Z,100380.05
2018-03-14T01:27:27.836Z,100382.48
2018-03-14T01:29:55.396Z,100389.08
2018-03-14T01:32:22.974Z,100389.33
2018-03-14T01:34:50.542Z,100387.31
2018-03-14T01:37:18.117Z,100389.77
2018-03-14T01:39:45.684Z,100390.91
2018-03-14T01:42:13.244Z,100389.86
2018-03-14T01:44:40.839Z,100392.64
2018-03-14T01:47:08.409Z,100390.08
2018-03-14T01:49:36.042Z,100396.46
2018-03-14T01:52:03.604Z,100395.23
2018-03-14T01:54:31.201Z,100399.55
2018-03-14T01:56:58.790Z,100403.75
2018-03-14T01:59:26.408Z,100399.14
2018-03-14T02:01:53.969Z,100407.84
2018-03-14T02:04:21.530Z,100411.42
2018-03-14T02:06:49.145Z,100409.66
2018-03-14T02:09:16.732Z,100421.55
2018-03-14T02:11:44.307Z,100411.75
2018-03-14T02:14:11.874Z,100424.89
2018-03-14T02:16:39.448Z,100422.62
2018-03-14T02:19:07.007Z,100426.44
2018-03-14T02:21:34.575Z,100427.19
2018-03-14T02:24:02.139Z,100430.77
2018-03-14T02:26:29.733Z,100439.03
2018-03-14T02:28:57.332Z,100440.98
2018-03-14T02:31:24.884Z,100443.42
2018-03-14T02:33:52.529Z,100437.63
2018-03-14T02:36:31.867Z,100443.94
2018-03-14T02:38:59.422Z,100451.14
2018-03-14T02:41:26.980Z,100455.62
2018-03-14T02:43:54.538Z,100447.95
2018-03-14T02:46:22.090Z,100452.28
2018-03-14T02:48:49.645Z,100451.21
2018-03-14T02:51:17.195Z,100453.92
2018-03-14T02:53:44.750Z,100458.00
2018-03-14T02:56:12.303Z,100457.19
2018-03-14T02:58:39.883Z,100464.29
2018-03-14T03:01:07.450Z,100466.44
2018-03-14T03:03:34.995Z,100472.53
2018-03-14T03:06:02.549Z,100475.91
2018-03-14T03:08:30.090Z,100475.96
2018-03-14T03:10:57.655Z,100472.76
2018-03-14T03:13:25.206Z,100474.89
2018-03-14T03:15:52.752Z,100476.43
2018-03-14T03:18:20.295Z,100474.64
2018-03-14T03:20:47.838Z,100478.07
2018-03-14T03:23:15.378Z,100482.54
2018-03-14T03:25:42.933Z,100481.64
2018-03-14T03:28:10.490Z,100487.39
2018-03-14T03:30:38.039Z,100480.50
2018-03-14T03:33:05.581Z,100485.75
2018-03-14T03:35:33.126Z,100488.26
2018-03-14T03:38:00.674Z,100489.60
2018-03-14T03:40:28.200Z,100496.77
2018-03-14T03:42:55.778Z,100495.59
2018-03-14T03:45:23.332Z,100497.99
2018-03-14T03:47:50.933Z,100495.27
2018-03-14T03:50:18.465Z,100502.13
2018-03-14T03:52:46.006Z,100504.32
2018-03-14T03:55:13.550Z,100510.07
2018-03-14T03:57:41.084Z,100511.96
2018-03-14T04:00:08.627Z,100516.36
2018-03-14T04:02:36.152Z,100515.97
2018-03-14T04:05:03.704Z,100519.38
2018-03-14T04:07:31.328Z,100525.53
2018-03-14T04:09:58.890Z,100523.43
2018-03-14T04:12:26.813Z,100521.77
2018-03-14T04:14:54.357Z,100526.02
2018-03-14T04:17:21.920Z,100522.66
2018-03-14T04:19:49.483Z,100530.53
2018-03-14T04:22:17.020Z,100526.97
2018-03-14T04:24:44.567Z,100531.94
2018-03-14T04:27:12.110Z,100533.69
2018-03-14T04:29:39.647Z,100534.96
2018-03-14T04:32:07.220Z,100542.12
2018-03-14T04:34:34.769Z,100540.69
2018-03-14T04:37:02.304Z,100537.55
2018-03-14T04:39:29.851Z,100548.15
2018-03-14T04:41:57.398Z,100548.55
2018-03-14T04:44:24.934Z,100545.49
2018-03-14T04:46:54.255Z,100549.04
2018-03-14T04:49:21.795Z,100550.70
2018-03-14T04:51:49.328Z,100558.73
2018-03-14T04:54:17.386Z,100552.65
2018-03-14T04:56:44.921Z,100558.23
2018-03-14T04:59:12.462Z,100557.92
2018-03-14T05:01:40.033Z,100559.13
2018-03-14T05:04:07.573Z,100560.44
2018-03-14T05:06:35.128Z,100565.23
2018-03-14T05:09:02.686Z,100568.44
2018-03-14T05:11:30.253Z,100563.72
2018-03-14T05:13:57.798Z,100569.34
2018-03-14T05:16:25.377Z,100571.70
2018-03-14T05:18:52.926Z,100568.12
2018-03-14T05:21:20.478Z,100575.73
2018-03-14T05:23:48.059Z,100573.16
2018-03-14T05:26:15.602Z,100575.85
2018-03-14T05:28:43.138Z,100576.20
2018-03-14T05:31:10.674Z,100582.24
2018-03-14T05:33:38.215Z,100589.94
2018-03-14T05:36:05.761Z,100591.56
2018-03-14T05:38:33.301Z,100591.98
2018-03-14T05:41:00.861Z,100599.59
2018-03-14T05:43:28.400Z,100598.52
2018-03-14T05:45:55.942Z,100595.03
2018-03-14T05:48:23.478Z,100599.89
2018-03-14T05:50:51.014Z,100607.90
2018-03-14T05:53:18.573Z,100603.99
2018-03-14T05:55:46.107Z,100604.78
2018-03-14T05:58:13.658Z,100604.38
2018-03-14T06:00:41.206Z,100603.08
2018-03-14T06:03:08.749Z,100614.46
2018-03-14T06:05:36.290Z,100613.59
2018-03-14T06:08:03.834Z,100613.67
2018-03-14T06:10:31.392Z,100612.20
2018-03-14T06:12:58.946Z,100625.91
2018-03-14T06:15:26.500Z,100621.00
2018-03-14T06:17:54.054Z,100617.81
2018-03-14T06:20:21.591Z,100628.47
2018-03-14T06:22:49.138Z,100625.24
2018-03-14T06:25:16.716Z,100627.39
2018-03-14T06:27:44.263Z,100638.09
2018-03-14T06:30:11.811Z,100632.11
2018-03-14T06:32:39.351Z,100639.72
2018-03-14T06:35:08.062Z,100643.70
2018-03-14T06:37:35.607Z,100645.34
2018-03-14T06:40:03.148Z,100646.47
2018-03-14T06:42:30.698Z,100654.73
2018-03-14T06:44:58.232Z,100654.70
2018-03-14T06:47:25.776Z,100656.89
2018-03-14T06:49:53.327Z,100663.08
2018-03-14T06:52:20.888Z,100669.34
2018-03-14T06:54:48.434Z,100664.42
2018-03-14T06:57:15.979Z,100673.31
2018-03-14T06:59:55.585Z,100673.93
2018-03-14T07:05:40.427Z,100676.14
2018-03-14T07:08:07.973Z,100676.95
2018-03-14T07:10:35.526Z,100682.10
2018-03-14T07:13:03.069Z,100683.49
2018-03-14T07:15:30.621Z,100687.70
2018-03-14T07:17:58.178Z,100683.04
2018-03-14T07:20:25.735Z,100684.28
2018-03-14T07:22:53.288Z,100686.30
2018-03-14T07:25:20.849Z,100687.34
2018-03-14T07:27:48.470Z,100694.84
2018-03-14T07:30:16.049Z,100693.13
2018-03-14T07:32:43.595Z,100700.77
2018-03-14T07:35:11.131Z,100703.11
2018-03-14T07:37:38.718Z,100707.89
2018-03-14T07:40:06.237Z,100708.70
2018-03-14T07:42:33.795Z,100712.74
2018-03-14T07:45:01.333Z,100716.59
2018-03-14T07:47:28.880Z,100720.50
2018-03-14T07:49:56.423Z,100721.14
2018-03-14T07:52:23.969Z,100721.84
2018-03-14T07:54:51.501Z,100727.52
2018-03-14T07:57:19.073Z,100721.97
2018-03-14T07:59:46.626Z,100724.30
2018-03-14T08:02:14.194Z,100723.09
2018-03-14T08:04:41.747Z,100727.22
2018-03-14T08:07:09.294Z,100735.67
2018-03-14T08:09:36.853Z,100727.66
2018-03-14T08:12:04.445Z,100732.70
2018-03-14T08:14:32.001Z,100733.66
2018-03-14T08:16:59.575Z,100732.97
2018-03-14T08:19:27.141Z,100738.36
2018-03-14T08:21:54.686Z,100729.25
2018-03-14T08:24:22.264Z,100730.53
2018-03-14T08:26:49.820Z,100729.76
2018-03-14T08:29:17.401Z,100730.03
2018-03-14T08:31:44.987Z,100730.31
2018-03-14T08:34:12.630Z,100734.03
2018-03-14T08:36:40.182Z,100740.64
2018-03-14T08:39:07.797Z,100737.90
2018-03-14T08:41:35.359Z,100737.91
2018-03-14T08:44:02.955Z,100740.59
2018-03-14T08:46:30.486Z,100744.29
2018-03-14T08:48:58.032Z,100741.94
2018-03-14T08:51:25.575Z,100745.47
2018-03-14T08:53:53.122Z,100741.83
2018-03-14T08:56:20.680Z,100749.91
2018-03-14T08:58:48.229Z,100746.89
2018-03-14T09:01:15.765Z,100753.39
2018-03-14T09:03:43.298Z,100753.00
2018-03-14T09:06:10.858Z,100761.98
2018-03-14T09:08:38.407Z,100759.10
2018-03-14T09:11:05.970Z,100761.77
2018-03-14T09:13:33.541Z,100766.80
2018-03-14T09:16:01.087Z,100770.19
2018-03-14T09:18:28.627Z,100768.06
2018-03-14T09:20:56.246Z,100769.32
2018-03-14T09:23:23.781Z,100767.78
2018-03-14T09:25:51.317Z,100775.25
2018-03-14T09:28:18.905Z,100770.23
2018-03-14T09:30:46.449Z,100767.12
2018-03-14T09:33:14.023Z,100763.62
2018-03-14T09:35:41.563Z,100765.83
2018-03-14T09:38:09.166Z,100759.69
2018-03-14T09:40:37.001Z,100763.98
2018-03-14T09:43:04.554Z,100768.15
2018-03-14T09:45:32.073Z,100772.10
2018-03-14T09:47:59.718Z,100772.96
2018-03-14T09:50:27.263Z,100767.15
2018-03-14T09:52:54.817Z,100773.58
2018-03-14T09:55:22.397Z,100774.98
2018-03-14T09:57:49.962Z,100778.84
2018-03-14T10:00:17.528Z,100780.50
2018-03-14T10:02:45.065Z,100784.12
2018-03-14T10:05:12.620Z,100787.15
2018-03-14T10:07:40.165Z,100783.45
2018-03-14T10:10:07.730Z,100788.92
2018-03-14T10:12:35.278Z,100789.25
2018-03-14T10:15:02.813Z,100791.80
2018-03-14T10:17:30.395Z,100791.91
2018-03-14T10:19:57.957Z,100794.84
2018-03-14T10:22:25.694Z,100791.25
2018-03-14T10:24:53.213Z,100790.53
2018-03-14T10:27:20.750Z,100795.38
2018-03-14T10:29:48.328Z,100794.84
2018-03-14T10:32:15.857Z,100798.38
2018-03-14T10:34:43.391Z,100795.70
2018-03-14T10:37:10.978Z,100800.14
2018-03-14T10:39:38.509Z,100797.44
2018-03-14T10:42:06.030Z,100798.22
2018-03-14T10:44:33.626Z,100797.91
2018-03-14T10:47:01.157Z,100800.17
2018-03-14T10:49:28.729Z,100804.75
2018-03-14T10:51:56.249Z,100796.94
2018-03-14T10:54:23.830Z,100798.55
2018-03-14T10:56:51.361Z,100800.25
2018-03-14T10:59:18.889Z,100801.30
2018-03-14T11:01:47.290Z,100808.75
2018-03-14T11:04:14.823Z,100805.88
2018-03-14T11:06:42.455Z,100812.09
2018-03-14T11:09:09.982Z,100808.91
2018-03-14T11:11:37.579Z,100813.34
2018-03-14T11:14:05.207Z,100816.73
2018-03-14T11:16:32.793Z,100822.87
2018-03-14T11:19:00.312Z,100819.55
2018-03-14T11:21:27.878Z,100819.98
2018-03-14T11:23:55.505Z,100823.56
2018-03-14T11:26:23.044Z,100824.70
2018-03-14T11:28:50.565Z,100821.80
2018-03-14T11:31:19.079Z,100830.84
2018-03-14T11:33:46.606Z,100827.66
2018-03-14T11:36:14.126Z,100830.86
2018-03-14T11:38:41.645Z,100822.96
2018-03-14T11:41:09.171Z,100838.70
2018-03-14T11:43:36.704Z,100830.94
2018-03-14T11:46:04.331Z,100833.24
2018-03-14T11:48:31.880Z,100831.75
2018-03-14T11:50:59.419Z,100838.02
2018-03-14T11:53:26.946Z,100830.69
2018-03-14T11:55:54.474Z,100842.47
2018-03-14T11:58:22.004Z,100840.66
2018-03-14T12:00:49.655Z,100841.54
2018-03-14T12:03:17.197Z,100832.61
2018-03-14T12:05:44.717Z,100837.25
2018-03-14T12:08:12.273Z,100841.16
2018-03-14T12:10:39.882Z,100832.77
2018-03-14T12:13:07.398Z,100840.95
2018-03-14T12:15:34.913Z,100841.16
2018-03-14T12:18:02.558Z,100834.22
2018-03-14T12:20:30.147Z,100834.27
2018-03-14T12:22:57.700Z,100832.70
2018-03-14T12:25:25.254Z,100819.91
2018-03-14T12:27:52.816Z,100826.33
2018-03-14T12:30:20.392Z,100817.14
2018-03-14T12:32:47.992Z,100818.27
2018-03-14T12:35:15.542Z,100828.95
2018-03-14T12:37:43.099Z,100822.59
2018-03-14T12:40:10.661Z,100819.98
2018-03-14T12:42:38.262Z,100821.59
2018-03-14T12:45:05.824Z,100821.16
2018-03-14T12:47:33.557Z,100822.01
2018-03-14T12:50:01.106Z,100822.85
2018-03-14T12:52:28.660Z,100820.50
2018-03-14T12:54:56.198Z,100826.17
2018-03-14T12:57:23.778Z,100829.20
2018-03-14T12:59:51.345Z,100826.09
2018-03-14T13:02:18.893Z,100832.83
2018-03-14T13:04:46.446Z,100831.52
2018-03-14T13:07:13.994Z,100821.30
2018-03-14T13:09:41.558Z,100825.55
2018-03-14T13:12:09.150Z,100833.39
2018-03-14T13:14:36.701Z,100828.94
2018-03-14T13:17:04.244Z,100834.22
2018-03-14T13:19:31.825Z,100839.98
2018-03-14T13:21:59.381Z,100832.72
2018-03-14T13:24:26.939Z,100837.10
2018-03-14T13:26:54.481Z,100838.11
2018-03-14T13:29:22.359Z,100841.28
2018-03-14T13:31:49.903Z,100845.05
2018-03-14T13:34:17.456Z,100843.05
2018-03-14T13:36:45.005Z,100841.23
2018-03-14T13:39:12.563Z,100847.46
2018-03-14T13:41:40.110Z,100850.72
2018-03-14T15:06:04.721Z,100845.19
2018-03-14T15:08:32.284Z,100843.76
2018-03-14T15:10:59.826Z,100841.63
2018-03-14T15:13:27.365Z,100839.23
2018-03-14T15:15:54.911Z,100836.89
2018-03-14T15:18:22.463Z,100834.13
2018-03-14T15:20:50.084Z,100838.30
2018-03-14T15:23:17.711Z,100830.78
2018-03-14T15:25:45.264Z,100831.34
2018-03-14T15:28:12.812Z,100832.80
2018-03-14T15:30:40.388Z,100834.08
2018-03-14T15:33:07.929Z,100836.73
2018-03-14T15:35:35.466Z,100835.99
2018-03-14T15:38:03.028Z,100835.05
2018-03-14T15:40:30.638Z,100831.65
2018-03-14T15:42:58.191Z,100837.35
2018-03-14T15:45:25.731Z,100835.47
2018-03-14T15:47:53.273Z,100840.38
2018-03-14T15:50:20.810Z,100838.98
2018-03-14T15:52:48.355Z,100833.59
2018-03-14T15:55:15.970Z,100840.83
2018-03-14T15:57:43.557Z,100839.64
2018-03-14T16:00:11.114Z,100840.67
2018-03-14T16:02:38.673Z,100833.07
2018-03-14T16:05:06.268Z,100841.03
2018-03-14T16:07:33.807Z,100844.14
2018-03-14T16:10:01.447Z,100849.06
2018-03-14T16:12:29.079Z,100852.27
2018-03-14T16:14:56.790Z,100858.75
2018-03-14T16:17:24.505Z,100860.09
2018-03-14T16:19:52.105Z,100860.23
2018-03-14T16:22:19.690Z,100859.53
2018-03-14T16:24:47.258Z,100863.70
2018-03-14T16:27:14.829Z,100868.98
2018-03-14T16:29:42.426Z,100870.38
2018-03-14T16:32:09.995Z,100873.86
2018-03-14T16:34:37.547Z,100875.25
2018-03-14T16:37:05.121Z,100887.73
2018-03-14T16:39:32.671Z,100884.25
2018-03-14T16:42:00.254Z,100889.30
2018-03-14T16:44:27.849Z,100881.48
2018-03-14T16:46:55.427Z,100887.82
2018-03-14T16:49:22.997Z,100888.64
2018-03-14T16:51:50.542Z,100893.12
2018-03-14T16:54:18.110Z,100891.58
2018-03-14T16:56:45.682Z,100893.20
2018-03-14T16:59:13.246Z,100896.83
2018-03-14T17:01:40.838Z,100903.63
2018-03-14T17:04:08.389Z,100890.41
2018-03-14T17:06:35.941Z,100893.98
2018-03-14T17:09:03.489Z,100896.20
2018-03-14T17:11:31.078Z,100897.80
2018-03-14T17:13:58.638Z,100897.87
2018-03-14T17:16:26.203Z,100902.80
2018-03-14T17:18:53.787Z,100899.70
2018-03-14T17:21:21.334Z,100907.23
2018-03-14T17:23:48.879Z,100900.17
2018-03-14T17:26:16.438Z,100905.55
2018-03-14T17:28:43.974Z,100902.08
2018-03-14T17:31:11.517Z,100901.23
2018-03-14T17:33:39.147Z,100901.55
2018-03-14T17:36:06.662Z,100907.71
2018-03-14T17:38:34.535Z,100909.41
2018-03-14T17:41:02.036Z,100912.52
2018-03-14T17:43:29.559Z,100913.78
2018-03-14T17:45:57.155Z,100913.50
2018-03-14T17:48:24.693Z,100915.27
2018-03-14T17:50:52.225Z,100921.14
2018-03-14T17:53:19.739Z,100917.98
2018-03-14T17:55:47.266Z,100929.52
2018-03-14T17:58:14.814Z,100919.88
2018-03-14T18:00:42.330Z,100921.27
2018-03-14T18:03:09.970Z,100917.71
2018-03-14T18:05:37.494Z,100923.95
2018-03-14T18:08:05.025Z,100921.27
2018-03-14T18:10:32.551Z,100921.27
2018-03-14T18:13:00.387Z,100929.31
2018-03-14T18:15:27.936Z,100932.83
2018-03-14T18:17:55.453Z,100931.52
2018-03-14T18:20:22.969Z,100925.71
2018-03-14T18:22:50.549Z,100922.69
2018-03-14T18:25:18.110Z,100925.20
2018-03-14T18:27:45.637Z,100925.20
2018-03-14T18:30:13.154Z,100920.51
2018-03-14T18:32:40.810Z,100928.89
2018-03-14T18:35:08.350Z,100920.95
2018-03-14T18:37:35.878Z,100926.75
2018-03-14T18:40:03.633Z,100926.23
2018-03-14T18:42:31.162Z,100921.08
2018-03-14T18:44:58.691Z,100932.42
2018-03-14T18:47:26.219Z,100928.53
2018-03-14T18:49:53.785Z,100921.91
2018-03-14T18:52:21.307Z,100929.03
2018-03-14T18:54:48.829Z,100929.41
2018-03-14T18:57:16.387Z,100926.22
2018-03-14T18:59:43.929Z,100928.11
2018-03-14T19:02:11.492Z,100919.22
2018-03-14T19:04:39.299Z,100928.45
2018-03-14T19:07:06.801Z,100923.23
2018-03-14T19:09:34.338Z,100923.20
2018-03-14T19:12:01.894Z,100925.41
2018-03-14T19:14:29.442Z,100925.33
2018-03-14T19:16:56.971Z,100922.40
2018-03-14T19:19:24.498Z,100922.67
2018-03-14T19:21:52.023Z,100927.86
2018-03-14T19:24:19.547Z,100930.50
2018-03-14T19:26:47.077Z,100924.95
2018-03-14T19:29:14.589Z,100926.77
2018-03-14T19:31:42.107Z,100926.36
2018-03-14T19:34:09.616Z,100924.97
2018-03-14T19:36:37.141Z,100922.41
2018-03-14T19:39:04.688Z,100927.25
2018-03-14T19:41:32.259Z,100918.81
2018-03-14T19:43:59.784Z,100917.03
2018-03-14T19:46:27.383Z,100921.82
2018-03-14T19:48:54.925Z,100913.89
2018-03-14T19:51:22.471Z,100916.63
2018-03-14T19:53:49.997Z,100919.64
2018-03-14T19:56:17.619Z,100917.84
2018-03-14T19:58:45.111Z,100924.59
2018-03-14T20:01:12.744Z,100917.16
2018-03-14T20:03:40.635Z,100906.45
2018-03-14T20:06:08.175Z,100911.36
2018-03-14T20:08:35.711Z,100926.45
2018-03-14T20:11:03.242Z,100918.94
2018-03-14T20:13:30.776Z,100914.36
2018-03-14T20:15:58.313Z,100914.33
2018-03-14T20:18:25.887Z,100914.03
2018-03-14T20:20:53.531Z,100912.16
2018-03-14T20:23:21.061Z,100913.55
2018-03-14T20:25:48.650Z,100915.09
2018-03-14T20:28:16.626Z,100914.45
2018-03-14T20:30:44.249Z,100915.73
2018-03-14T20:33:11.832Z,100916.08
2018-03-14T20:35:39.402Z,100912.42
2018-03-14T20:38:06.934Z,100923.83
2018-03-14T20:40:34.462Z,100917.16
2018-03-14T20:43:02.082Z,100921.05
2018-03-14T20:45:29.654Z,100925.20
2018-03-14T20:47:57.198Z,100923.83
2018-03-14T20:50:24.831Z,100919.73
2018-03-14T20:52:52.630Z,100925.13
2018-03-14T20:55:20.158Z,100927.39
2018-03-14T20:57:48.058Z,100928.27
2018-03-14T21:00:15.641Z,100923.39
2018-03-14T21:02:43.177Z,100921.64
2018-03-14T21:05:10.742Z,100923.97
2018-03-14T21:07:38.261Z,100921.73
2018-03-14T21:10:05.882Z,100920.47
2018-03-14T21:12:33.519Z,100919.86
2018-03-14T21:15:01.373Z,100923.84
2018-03-14T21:17:28.961Z,100922.02
2018-03-14T21:19:56.610Z,100920.69
2018-03-14T21:22:24.134Z,100923.39
2018-03-14T21:24:52.233Z,100915.70
2018-03-14T21:27:19.769Z,100921.05
2018-03-14T21:29:47.297Z,100918.52
2018-03-14T21:32:15.154Z,100914.12
2018-03-14T21:34:42.695Z,100916.23
2018-03-14T21:37:10.216Z,100921.61
2018-03-14T21:39:37.757Z,100921.17
2018-03-14T21:42:05.294Z,100923.02
2018-03-14T21:44:32.819Z,100921.72
2018-03-14T21:47:00.434Z,100923.11
2018-03-14T21:49:27.898Z,100923.07
2018-03-14T21:51:55.470Z,100919.55
2018-03-14T21:54:23.380Z,100921.87
2018-03-14T21:56:51.088Z,100926.88
2018-03-14T21:59:18.637Z,100909.11
2018-03-14T22:01:46.196Z,100914.79
2018-03-14T22:04:13.919Z,100924.50
2018-03-14T22:06:41.441Z,100925.03
2018-03-14T22:09:09.234Z,100922.81
2018-03-14T22:14:29.802Z,100922.69
2018-03-14T22:16:57.764Z,100923.27
2018-03-14T22:19:25.633Z,100915.16
2018-03-14T22:21:53.682Z,100918.30
2018-03-14T22:24:21.525Z,100916.44
2018-03-14T22:26:49.437Z,100918.97
2018-03-14T22:29:17.405Z,100923.55
2018-03-14T22:31:45.491Z,100919.70
2018-03-14T22:34:13.100Z,100913.05
2018-03-14T22:36:40.630Z,100925.14
2018-03-14T22:39:08.206Z,100922.03
2018-03-14T22:41:35.734Z,100914.65
2018-03-14T22:44:03.344Z,100918.22
2018-03-14T22:46:30.867Z,100919.16
2018-03-14T22:48:58.384Z,100922.19
2018-03-14T22:51:25.918Z,100914.23
2018-03-14T22:53:53.445Z,100909.44
2018-03-14T22:56:20.961Z,100914.63
2018-03-14T22:58:48.497Z,100914.75
2018-03-14T23:01:16.019Z,100914.38
2018-03-14T23:03:43.561Z,100912.59
2018-03-14T23:06:11.124Z,100909.89
2018-03-14T23:08:38.681Z,100908.42
2018-03-14T23:11:06.297Z,100904.02
2018-03-14T23:13:33.965Z,100905.77
